Warning: Javascript must be enabled to use all the features on this page!


Page Loading - Please Wait...

* We've detected you're using a mobile device. Find our Next Generation Station Page here.
Click to hideNews Bulletins

Peak Streamflow for the Nation

USGS 103366092 UPPER TRUCKEE RV AT HWY 50 ABV MEYERS, CA

El Dorado County, California
Hydrologic Unit Code 16050101
Latitude  38°50'55", Longitude 120°01'34" NAD27
Drainage area 39.3  square miles
Gage datum 6,310 feet above NGVD29
Output formats
Table
Graph
Tab-separated file
peakfq (watstore) format
Reselect output format
Water
Year
Date Gage
Height
(feet)
Stream-
flow
(cfs)
1991 1991-05-25 3.68 511
1992 1992-04-17 3.36 289
1993 1993-05-18 4.60 1,600
1994 1994-04-19 3.20 268
1995 1995-06-25 5.14 1,230
1996 1996-05-16 6.61 2,320
1997 1997-01-02 8.95 5,120
1998 1998-06-14 7.68 853
1999 1999-05-26 8.09 1,230
2000 2000-05-08 7.32 830
2001 2001-05-15 6.27 352
2002 2002-05-18 6.63 486
2003 2003-05-28 7.33 799
2004 2004-05-04 6.31 447
2005 2005-05-16 8.41 1,440
2006 2005-12-31 9.14 2,010
2007 2007-05-10 5.90 319
2008 2008-05-18 6.67 571
2009 2009-05-03 6.75 603
2010 2010-06-06 7.79 1,120
2011 2010-10-24 8.60 1,650
2012 2012-04-26 6.93 603
2013 2012-12-02 6.63 517
2014 2014-04-18 5.732 218
2015 2015-02-08 6.93 548
2016 2016-05-13 6.94 499
2017 2017-02-08 9.38 2,090
2018 2018-04-07 9.32 1,800
2019 2019-06-05 7.59 862
2020 2020-05-18 7.15 552
?
  Peak Gage-Height Qualification Codes.